createdAt,value
2017-12-04T00:00:28.216Z,101246.34
2017-12-04T00:02:54.158Z,101244.88
2017-12-04T00:05:19.939Z,101243.78
2017-12-04T00:07:45.860Z,101231.30
2017-12-04T00:10:11.651Z,101232.14
2017-12-04T00:12:37.435Z,101231.95
2017-12-04T00:15:03.293Z,101226.52
2017-12-04T00:17:29.099Z,101230.22
2017-12-04T00:19:55.795Z,101225.20
2017-12-04T00:22:21.584Z,101222.45
2017-12-04T00:24:47.360Z,101220.45
2017-12-04T00:27:13.340Z,101227.06
2017-12-04T00:29:39.303Z,101235.27
2017-12-04T00:32:05.362Z,101242.02
2017-12-04T00:34:31.135Z,101240.36
2017-12-04T00:36:57.731Z,101246.82
2017-12-04T00:39:23.499Z,101253.19
2017-12-04T00:41:49.275Z,101251.03
2017-12-04T00:44:15.967Z,101249.44
2017-12-04T00:46:41.764Z,101237.82
2017-12-04T00:49:07.539Z,101238.66
2017-12-04T00:51:33.375Z,101243.77
2017-12-04T00:53:59.194Z,101239.31
2017-12-04T00:56:24.978Z,101246.88
2017-12-04T00:58:51.759Z,101250.13
2017-12-04T01:01:18.512Z,101251.75
2017-12-04T01:03:44.287Z,101252.29
2017-12-04T01:06:10.059Z,101259.34
2017-12-04T01:08:35.830Z,101255.92
2017-12-04T01:11:02.568Z,101254.06
2017-12-04T01:13:28.567Z,101249.80
2017-12-04T01:15:54.338Z,101251.59
2017-12-04T01:18:21.073Z,101267.18
2017-12-04T01:20:46.970Z,101273.94
2017-12-04T01:23:12.723Z,101275.98
2017-12-04T01:25:38.494Z,101277.09
2017-12-04T01:28:04.269Z,101274.93
2017-12-04T01:30:30.044Z,101268.02
2017-12-04T01:32:55.808Z,101273.01
2017-12-04T01:35:22.571Z,101269.22
2017-12-04T01:37:48.347Z,101275.05
2017-12-04T01:40:14.191Z,101270.13
2017-12-04T01:42:39.960Z,101270.09
2017-12-04T01:45:05.746Z,101268.23
2017-12-04T01:47:31.539Z,101272.83
2017-12-04T01:49:57.350Z,101277.30
2017-12-04T01:52:23.119Z,101268.98
2017-12-04T01:54:49.091Z,101274.18
2017-12-04T01:57:14.910Z,101269.50
2017-12-04T01:59:40.683Z,101263.91
2017-12-04T02:02:06.537Z,101255.50
2017-12-04T02:04:32.327Z,101255.50
2017-12-04T02:06:58.113Z,101250.45
2017-12-04T02:09:23.883Z,101247.51
2017-12-04T02:11:49.660Z,101250.78
2017-12-04T02:14:16.376Z,101244.67
2017-12-04T02:16:42.143Z,101243.77
2017-12-04T02:19:07.925Z,101243.98
2017-12-04T02:21:33.722Z,101237.77
2017-12-04T02:23:59.528Z,101235.22
2017-12-04T02:26:25.323Z,101237.59
2017-12-04T02:28:51.108Z,101220.61
2017-12-04T02:31:17.786Z,101219.27
2017-12-04T02:33:43.560Z,101214.41
2017-12-04T02:36:09.357Z,101210.04
2017-12-04T02:38:35.145Z,101205.73
2017-12-04T02:41:00.939Z,101204.19
2017-12-04T02:43:26.742Z,101206.87
2017-12-04T02:45:52.526Z,101210.17
2017-12-04T02:48:18.331Z,101205.39
2017-12-04T02:50:44.128Z,101203.83
2017-12-04T02:53:09.939Z,101198.64
2017-12-04T02:55:35.722Z,101195.08
2017-12-04T02:58:01.515Z,101193.59
2017-12-04T03:00:27.296Z,101193.00
2017-12-04T03:02:53.075Z,101187.83
2017-12-04T03:05:18.852Z,101190.74
2017-12-04T03:07:44.715Z,101188.97
2017-12-04T03:10:10.496Z,101189.86
2017-12-04T03:12:36.283Z,101185.33
2017-12-04T03:15:02.076Z,101181.88
2017-12-04T03:17:27.856Z,101187.02
2017-12-04T03:19:53.822Z,101188.19
2017-12-04T03:22:19.669Z,101191.03
2017-12-04T03:24:45.572Z,101187.20
2017-12-04T03:27:11.398Z,101180.76
2017-12-04T03:29:37.181Z,101177.13
2017-12-04T03:32:02.952Z,101178.45
2017-12-04T03:34:28.728Z,101175.44
2017-12-04T03:36:54.532Z,101171.79
2017-12-04T03:39:20.356Z,101181.48
2017-12-04T03:41:46.152Z,101181.45
2017-12-04T03:44:12.117Z,101172.52
2017-12-04T03:46:37.948Z,101170.52
2017-12-04T03:49:03.728Z,101173.17
2017-12-04T03:51:29.547Z,101173.80
2017-12-04T03:53:55.332Z,101170.52
2017-12-04T03:56:21.113Z,101166.08
2017-12-04T03:58:46.892Z,101168.27
2017-12-04T04:01:12.672Z,101167.25
2017-12-04T04:03:38.455Z,101163.02
2017-12-04T04:06:04.235Z,101162.68
2017-12-04T04:08:30.113Z,101162.10
2017-12-04T04:10:55.890Z,101160.00
2017-12-04T04:13:21.705Z,101155.63
2017-12-04T04:15:47.483Z,101167.17
2017-12-04T04:18:13.413Z,101157.52
2017-12-04T04:20:39.208Z,101163.00
2017-12-04T04:23:05.027Z,101152.58
2017-12-04T04:25:30.832Z,101156.84
2017-12-04T04:27:56.627Z,101145.13
2017-12-04T04:30:22.408Z,101138.72
2017-12-04T04:32:48.188Z,101163.39
2017-12-04T04:35:13.971Z,101157.40
2017-12-04T04:37:39.788Z,101165.95
2017-12-04T04:40:05.560Z,101168.73
2017-12-04T04:42:31.340Z,101169.50
2017-12-04T04:44:57.116Z,101166.59
2017-12-04T04:47:22.916Z,101158.50
2017-12-04T04:49:48.696Z,101158.66
2017-12-04T04:52:14.515Z,101171.88
2017-12-04T04:54:40.308Z,101169.30
2017-12-04T04:57:06.109Z,101169.42
2017-12-04T04:59:31.955Z,101161.72
2017-12-04T05:01:57.736Z,101170.80
2017-12-04T05:04:23.516Z,101180.30
2017-12-04T05:06:49.308Z,101171.45
2017-12-04T05:09:15.154Z,101171.52
2017-12-04T05:11:41.035Z,101178.73
2017-12-04T05:14:06.904Z,101183.83
2017-12-04T05:16:32.747Z,101181.10
2017-12-04T05:18:58.543Z,101183.00
2017-12-04T05:21:24.336Z,101177.48
2017-12-04T05:23:50.128Z,101178.55
2017-12-04T05:26:16.051Z,101181.33
2017-12-04T05:28:41.881Z,101182.52
2017-12-04T05:31:07.686Z,101183.47
2017-12-04T05:33:33.632Z,101191.21
2017-12-04T05:35:59.466Z,101190.84
2017-12-04T05:38:25.255Z,101191.49
2017-12-04T05:40:51.032Z,101184.53
2017-12-04T05:43:16.909Z,101183.61
2017-12-04T05:45:42.748Z,101184.92
2017-12-04T05:48:08.532Z,101187.57
2017-12-04T05:50:34.447Z,101182.03
2017-12-04T05:53:00.228Z,101188.05
2017-12-04T05:55:27.110Z,101185.87
2017-12-04T05:57:52.920Z,101188.58
2017-12-04T06:00:18.704Z,101183.22
2017-12-04T06:02:44.556Z,101176.92
2017-12-04T06:05:10.339Z,101180.84
2017-12-04T06:07:36.506Z,101182.37
2017-12-04T06:10:02.325Z,101186.08
2017-12-04T06:12:28.103Z,101192.82
2017-12-04T06:14:54.626Z,101191.50
2017-12-04T06:17:20.401Z,101203.82
2017-12-04T06:19:46.180Z,101205.70
2017-12-04T06:22:11.976Z,101203.11
2017-12-04T06:24:37.752Z,101193.02
2017-12-04T06:27:03.536Z,101191.75
2017-12-04T06:29:29.499Z,101180.84
2017-12-04T06:31:55.352Z,101205.48
2017-12-04T06:34:21.256Z,101205.95
2017-12-04T06:36:47.043Z,101227.26
2017-12-04T06:39:12.827Z,101219.53
2017-12-04T06:41:38.596Z,101218.00
2017-12-04T06:44:04.368Z,101225.09
2017-12-04T06:46:30.145Z,101229.84
2017-12-04T06:48:55.939Z,101231.92
2017-12-04T06:51:21.715Z,101229.64
2017-12-04T06:53:47.507Z,101228.24
2017-12-04T06:56:13.276Z,101235.97
2017-12-04T06:58:39.084Z,101234.55
2017-12-04T07:01:04.893Z,101231.79
2017-12-04T07:03:30.725Z,101241.74
2017-12-04T07:05:56.505Z,101239.56
2017-12-04T07:08:22.303Z,101236.84
2017-12-04T07:10:48.082Z,101240.50
2017-12-04T07:13:13.905Z,101244.66
2017-12-04T07:15:39.695Z,101246.27
2017-12-04T07:18:05.519Z,101252.36
2017-12-04T07:20:31.297Z,101254.67
2017-12-04T07:22:57.152Z,101256.43
2017-12-04T07:25:22.923Z,101263.71
2017-12-04T07:27:48.707Z,101260.23
2017-12-04T07:30:14.484Z,101262.12
2017-12-04T07:32:40.271Z,101267.62
2017-12-04T07:35:06.048Z,101269.67
2017-12-04T07:37:31.833Z,101274.43
2017-12-04T07:39:57.612Z,101275.56
2017-12-04T07:42:23.383Z,101276.92
2017-12-04T07:44:49.200Z,101286.37
2017-12-04T07:47:14.975Z,101285.54
2017-12-04T07:49:40.799Z,101293.86
2017-12-04T07:52:06.576Z,101299.78
2017-12-04T07:54:32.352Z,101298.48
2017-12-04T07:56:58.157Z,101291.80
2017-12-04T07:59:23.936Z,101294.37
2017-12-04T08:01:49.712Z,101306.41
2017-12-04T08:04:15.504Z,101309.45
2017-12-04T08:06:41.320Z,101309.33
2017-12-04T08:09:07.101Z,101312.72
2017-12-04T08:11:32.871Z,101304.07
2017-12-04T08:13:58.656Z,101304.04
2017-12-04T08:16:24.440Z,101311.49
2017-12-04T08:18:50.220Z,101319.51
2017-12-04T08:21:16.018Z,101314.70
2017-12-04T08:23:41.879Z,101319.80
2017-12-04T08:26:07.668Z,101324.14
2017-12-04T08:28:33.448Z,101320.97
2017-12-04T08:30:59.228Z,101318.80
2017-12-04T08:33:25.009Z,101323.23
2017-12-04T08:35:50.913Z,101323.73
2017-12-04T08:38:16.683Z,101328.05
2017-12-04T08:40:42.604Z,101321.45
2017-12-04T08:43:08.420Z,101327.41
2017-12-04T08:45:34.253Z,101328.31
2017-12-04T08:48:00.107Z,101333.03
2017-12-04T08:50:25.920Z,101335.68
2017-12-04T08:52:51.691Z,101337.11
2017-12-04T08:55:17.472Z,101332.92
2017-12-04T08:57:43.251Z,101339.53
2017-12-04T09:00:09.032Z,101351.63
2017-12-04T09:02:34.811Z,101356.36
2017-12-04T09:05:00.580Z,101349.77
2017-12-04T09:07:26.355Z,101353.75
2017-12-04T09:09:52.193Z,101359.23
2017-12-04T09:12:17.976Z,101368.83
2017-12-04T09:14:43.812Z,101363.09
2017-12-04T09:17:09.640Z,101366.88
2017-12-04T09:19:35.417Z,101368.11
2017-12-04T09:22:01.236Z,101370.48
2017-12-04T09:24:27.099Z,101365.76
2017-12-04T09:26:52.883Z,101374.05
2017-12-04T09:29:18.687Z,101370.92
2017-12-04T09:31:44.455Z,101368.09
2017-12-04T09:34:10.245Z,101370.51
2017-12-04T09:36:36.105Z,101371.26
2017-12-04T09:39:01.895Z,101375.02
2017-12-04T09:41:27.703Z,101374.39
2017-12-04T09:43:53.648Z,101382.20
2017-12-04T09:46:19.459Z,101375.28
2017-12-04T09:48:45.274Z,101371.91
2017-12-04T09:51:11.069Z,101373.36
2017-12-04T09:53:36.843Z,101375.70
2017-12-04T09:56:02.756Z,101377.28
2017-12-04T09:58:28.528Z,101374.34
2017-12-04T10:00:54.313Z,101373.39
2017-12-04T10:03:20.088Z,101371.74
2017-12-04T10:05:45.871Z,101367.73
2017-12-04T10:08:11.688Z,101382.64
2017-12-04T10:10:37.464Z,101382.78
2017-12-04T10:13:03.243Z,101388.08
2017-12-04T10:15:29.032Z,101386.80
2017-12-04T10:17:54.799Z,101401.49
2017-12-04T10:20:20.644Z,101423.95
2017-12-04T10:22:46.460Z,101425.95
2017-12-04T10:25:12.241Z,101428.63
2017-12-04T10:27:38.110Z,101428.03
2017-12-04T10:30:03.940Z,101421.63
2017-12-04T10:32:30.006Z,101414.00
2017-12-04T10:34:55.870Z,101417.09
2017-12-04T10:37:21.679Z,101414.78
2017-12-04T10:39:47.456Z,101415.08
2017-12-04T10:42:13.240Z,101422.66
2017-12-04T10:44:39.120Z,101421.48
2017-12-04T10:47:04.912Z,101415.65
2017-12-04T10:49:30.700Z,101421.20
2017-12-04T10:51:56.503Z,101418.36
2017-12-04T10:54:22.300Z,101412.09
2017-12-04T10:56:48.091Z,101417.56
2017-12-04T10:59:13.875Z,101413.63
2017-12-04T11:01:39.684Z,101414.72
2017-12-04T11:04:05.477Z,101422.22
2017-12-04T11:06:31.256Z,101432.70
2017-12-04T11:08:57.035Z,101430.22
2017-12-04T11:11:22.821Z,101426.43
2017-12-04T11:13:48.640Z,101427.42
2017-12-04T11:16:14.424Z,101429.87
2017-12-04T11:18:40.218Z,101431.88
2017-12-04T11:21:06.029Z,101431.53
2017-12-04T11:23:31.808Z,101437.61
2017-12-04T11:25:57.589Z,101434.95
2017-12-04T11:28:23.363Z,101435.59
2017-12-04T11:30:49.160Z,101441.21
2017-12-04T11:33:14.932Z,101446.02
2017-12-04T11:35:40.740Z,101443.87
2017-12-04T11:38:06.608Z,101437.41
2017-12-04T11:40:32.397Z,101438.69
2017-12-04T11:42:58.200Z,101439.02
2017-12-04T11:45:23.988Z,101442.24
2017-12-04T11:47:49.763Z,101441.92
2017-12-04T11:50:15.540Z,101445.20
2017-12-04T11:52:41.324Z,101443.66
2017-12-04T11:55:07.095Z,101446.75
2017-12-04T11:57:32.876Z,101447.98
2017-12-04T11:59:58.648Z,101450.33
2017-12-04T12:02:24.451Z,101451.80
2017-12-04T12:04:50.231Z,101448.44
2017-12-04T12:07:16.059Z,101457.58
2017-12-04T12:09:41.867Z,101454.78
2017-12-04T12:12:07.664Z,101460.33
2017-12-04T12:14:33.441Z,101466.86
2017-12-04T12:16:59.261Z,101466.84
2017-12-04T12:19:25.055Z,101467.83
2017-12-04T12:21:50.870Z,101471.55
2017-12-04T12:24:17.520Z,101475.98
2017-12-04T12:26:43.323Z,101478.94
2017-12-04T12:29:09.092Z,101479.51
2017-12-04T12:31:34.896Z,101482.78
2017-12-04T12:34:00.705Z,101486.22
2017-12-04T12:36:26.477Z,101487.69
2017-12-04T12:38:52.281Z,101489.40
2017-12-04T12:41:18.096Z,101490.02
2017-12-04T12:43:43.864Z,101491.98
2017-12-04T12:46:09.680Z,101496.90
2017-12-04T12:48:35.453Z,101494.25
2017-12-04T12:51:01.224Z,101491.67
2017-12-04T12:53:27.039Z,101505.67
2017-12-04T12:55:52.823Z,101503.52
2017-12-04T12:58:18.648Z,101508.37
2017-12-04T13:00:44.435Z,101514.41
2017-12-04T13:03:10.244Z,101521.76
2017-12-04T13:05:36.024Z,101520.38
2017-12-04T13:08:01.852Z,101524.19
2017-12-04T13:10:27.698Z,101530.66
2017-12-04T13:12:53.476Z,101530.55
2017-12-04T13:15:19.256Z,101525.98
2017-12-04T13:17:45.040Z,101526.47
2017-12-04T13:20:10.816Z,101525.04
2017-12-04T13:22:36.624Z,101526.93
2017-12-04T13:25:02.395Z,101526.30
2017-12-04T13:27:28.173Z,101534.59
2017-12-04T13:29:53.956Z,101535.58
2017-12-04T13:32:25.944Z,101537.97
2017-12-04T13:34:57.876Z,101542.09
2017-12-04T13:37:23.656Z,101542.64
2017-12-04T13:39:49.440Z,101550.48
2017-12-04T13:42:15.232Z,101544.17
2017-12-04T13:44:41.095Z,101552.60
2017-12-04T13:47:06.896Z,101551.68
2017-12-04T13:49:32.672Z,101550.16
2017-12-04T13:51:58.452Z,101561.43
2017-12-04T13:54:24.228Z,101563.45
2017-12-04T13:56:50.016Z,101567.81
2017-12-04T13:59:15.803Z,101571.64
2017-12-04T14:01:41.600Z,101571.16
2017-12-04T14:04:07.388Z,101570.42
2017-12-04T14:06:33.160Z,101575.66
2017-12-04T14:08:58.944Z,101579.45
2017-12-04T14:11:24.716Z,101582.94
2017-12-04T14:13:50.487Z,101582.20
2017-12-04T14:16:16.260Z,101585.22
2017-12-04T14:18:42.032Z,101589.46
2017-12-04T14:21:07.808Z,101587.32
2017-12-04T14:23:33.580Z,101599.87
2017-12-04T14:25:59.355Z,101600.86
2017-12-04T14:28:25.129Z,101599.64
2017-12-04T14:30:50.942Z,101607.55
2017-12-04T14:33:16.711Z,101612.39
2017-12-04T14:35:42.484Z,101614.95
2017-12-04T14:38:08.285Z,101617.47
2017-12-04T14:40:34.055Z,101620.29
2017-12-04T14:43:00.027Z,101617.20
2017-12-04T14:45:25.820Z,101622.91
2017-12-04T14:47:51.592Z,101623.25
2017-12-04T14:50:17.368Z,101629.02
2017-12-04T14:52:43.147Z,101633.29
2017-12-04T14:55:08.931Z,101633.57
2017-12-04T14:57:34.743Z,101641.34
2017-12-04T15:00:00.552Z,101642.59
2017-12-04T15:02:26.323Z,101648.50
2017-12-04T15:04:52.139Z,101648.36
2017-12-04T15:07:17.926Z,101656.23
2017-12-04T15:09:43.735Z,101661.89
2017-12-04T15:12:09.516Z,101662.20
2017-12-04T15:14:35.339Z,101668.92
2017-12-04T15:17:01.115Z,101676.02
2017-12-04T15:19:26.899Z,101675.11
2017-12-04T15:21:52.670Z,101679.95
2017-12-04T15:24:18.465Z,101679.98
2017-12-04T15:26:44.271Z,101680.34
2017-12-04T15:29:10.043Z,101690.08
2017-12-04T15:31:35.833Z,101691.40
2017-12-04T15:34:01.632Z,101689.34
2017-12-04T15:36:27.415Z,101696.80
2017-12-04T15:38:53.184Z,101697.34
2017-12-04T15:41:18.998Z,101705.09
2017-12-04T15:43:44.784Z,101705.36
2017-12-04T15:46:10.588Z,101711.92
2017-12-04T15:48:36.375Z,101718.06
2017-12-04T15:51:02.161Z,101711.78
2017-12-04T15:53:27.971Z,101712.49
2017-12-04T15:55:53.792Z,101718.19
2017-12-04T15:58:19.648Z,101714.58
2017-12-04T16:00:45.475Z,101727.08
2017-12-04T16:03:11.255Z,101727.95
2017-12-04T16:05:37.031Z,101727.92
2017-12-04T16:08:02.843Z,101727.70
2017-12-04T16:10:28.620Z,101733.65
2017-12-04T16:12:54.440Z,101737.42
2017-12-04T16:15:20.219Z,101741.20
2017-12-04T16:17:45.992Z,101744.58
2017-12-04T16:20:11.772Z,101747.92
2017-12-04T16:22:37.560Z,101748.97
2017-12-04T16:25:03.340Z,101755.65
2017-12-04T16:27:29.156Z,101758.82
2017-12-04T16:29:54.975Z,101763.70
2017-12-04T16:32:20.787Z,101767.67
2017-12-04T16:34:46.571Z,101771.92
2017-12-04T16:37:12.342Z,101774.03
2017-12-04T16:39:38.111Z,101782.25
2017-12-04T16:42:03.907Z,101779.61
2017-12-04T16:44:29.719Z,101787.96
2017-12-04T16:46:55.492Z,101791.91
2017-12-04T16:49:21.261Z,101791.98
2017-12-04T16:51:47.039Z,101797.38
2017-12-04T16:54:12.812Z,101801.67
2017-12-04T16:56:38.583Z,101803.42
2017-12-04T16:59:04.360Z,101809.72
2017-12-04T17:01:30.197Z,101812.43
2017-12-04T17:03:55.981Z,101812.23
2017-12-04T17:06:21.777Z,101812.61
2017-12-04T17:08:47.551Z,101817.17
2017-12-04T17:11:13.328Z,101825.52
2017-12-04T17:13:39.095Z,101825.69
2017-12-04T17:16:04.880Z,101831.09
2017-12-04T17:18:30.652Z,101840.34
2017-12-04T17:20:56.428Z,101848.69
2017-12-04T17:23:22.208Z,101853.86
2017-12-04T17:25:47.988Z,101854.86
2017-12-04T17:28:13.840Z,101858.70
2017-12-04T17:30:39.617Z,101863.68
2017-12-04T17:33:05.409Z,101866.59
2017-12-04T17:35:31.227Z,101867.92
2017-12-04T17:37:57.047Z,101878.06
2017-12-04T17:40:22.804Z,101876.09
2017-12-04T17:42:48.585Z,101878.27
2017-12-04T17:45:14.365Z,101881.19
2017-12-04T17:47:40.171Z,101888.25
2017-12-04T17:50:05.940Z,101888.89
2017-12-04T17:52:31.730Z,101891.29
2017-12-04T17:54:57.550Z,101892.15
2017-12-04T17:57:23.324Z,101894.05
2017-12-04T17:59:49.104Z,101899.83
2017-12-04T18:02:14.899Z,101900.23
2017-12-04T18:04:40.680Z,101901.89
2017-12-04T18:07:06.480Z,101899.39
2017-12-04T18:09:32.273Z,101894.20
2017-12-04T18:11:58.060Z,101903.97
2017-12-04T18:14:23.852Z,101906.56
2017-12-04T18:16:49.667Z,101908.98
2017-12-04T18:19:15.491Z,101910.31
2017-12-04T18:21:41.292Z,101905.34
2017-12-04T18:24:07.072Z,101906.80
2017-12-04T18:26:32.864Z,101907.72
2017-12-04T18:28:58.650Z,101907.90
2017-12-04T18:31:24.437Z,101906.28
2017-12-04T18:33:50.208Z,101908.42
2017-12-04T18:36:15.984Z,101905.11
2017-12-04T18:38:41.759Z,101906.73
2017-12-04T18:41:07.643Z,101907.57
2017-12-04T18:43:33.439Z,101905.65
2017-12-04T18:45:59.241Z,101905.94
2017-12-04T18:48:25.020Z,101910.17
2017-12-04T18:50:50.797Z,101911.23
2017-12-04T18:53:16.584Z,101907.57
2017-12-04T18:55:42.399Z,101911.86
2017-12-04T18:58:08.215Z,101917.25
2017-12-04T19:00:34.010Z,101915.98
2017-12-04T19:02:59.944Z,101920.07
2017-12-04T19:05:25.745Z,101916.53
2017-12-04T19:07:51.600Z,101919.37
2017-12-04T19:10:17.465Z,101921.92
2017-12-04T19:12:43.374Z,101924.76
2017-12-04T19:15:09.159Z,101927.56
2017-12-04T19:17:34.951Z,101926.12
2017-12-04T19:20:02.203Z,101930.59
2017-12-04T19:22:28.036Z,101926.55
2017-12-04T19:24:53.843Z,101929.22
2017-12-04T19:27:19.629Z,101933.58
2017-12-04T19:29:45.425Z,101941.13
2017-12-04T19:32:13.424Z,101946.31
2017-12-04T19:34:39.212Z,101936.59
2017-12-04T19:37:05.109Z,101943.20
2017-12-04T19:39:30.912Z,101943.08
2017-12-04T19:41:56.704Z,101946.92
2017-12-04T19:44:22.536Z,101954.71
2017-12-04T19:46:48.340Z,101944.74
2017-12-04T19:49:14.184Z,101941.44
2017-12-04T19:51:41.057Z,101951.80
2017-12-04T19:54:06.884Z,101946.73
2017-12-04T19:56:32.666Z,101945.78
2017-12-04T19:58:58.548Z,101945.69
2017-12-04T20:01:24.344Z,101945.00
2017-12-04T20:03:50.128Z,101941.69
2017-12-04T20:06:15.908Z,101944.66
2017-12-04T20:08:41.684Z,101950.29
2017-12-04T20:11:07.476Z,101949.52
2017-12-04T20:13:33.323Z,101952.51
2017-12-04T20:15:59.193Z,101963.59
2017-12-04T20:18:25.118Z,101958.85
2017-12-04T20:20:50.900Z,101958.13
2017-12-04T20:23:16.720Z,101956.09
2017-12-04T20:25:42.508Z,101955.50
2017-12-04T20:28:08.373Z,101965.52
2017-12-04T20:30:34.205Z,101968.10
2017-12-04T20:33:01.068Z,101966.01
2017-12-04T20:35:26.887Z,101965.39
2017-12-04T20:37:52.702Z,101974.25
2017-12-04T20:40:18.528Z,101964.10
2017-12-04T20:42:45.354Z,101973.30
2017-12-04T20:45:11.156Z,101976.70
2017-12-04T20:47:37.008Z,101982.66
2017-12-04T20:50:02.852Z,101985.72
2017-12-04T20:52:28.653Z,101986.47
2017-12-04T20:54:54.445Z,101988.27
2017-12-04T20:57:20.232Z,101998.08
2017-12-04T20:59:46.152Z,101994.41
2017-12-04T21:02:11.939Z,101998.71
2017-12-04T21:04:37.708Z,101998.89
2017-12-04T21:07:03.488Z,101997.66
2017-12-04T21:09:35.366Z,102000.08
2017-12-04T21:12:01.236Z,101998.05
2017-12-04T21:14:33.203Z,101999.33
2017-12-04T21:17:05.172Z,102002.95
2017-12-04T21:19:30.986Z,102002.61
2017-12-04T21:21:56.772Z,102002.19
2017-12-04T21:24:22.568Z,102006.34
2017-12-04T21:26:48.453Z,102005.33
2017-12-04T21:29:14.236Z,102006.17
2017-12-04T21:31:40.076Z,102003.44
2017-12-04T21:34:05.875Z,102009.57
2017-12-04T21:36:31.648Z,102011.48
2017-12-04T21:38:57.435Z,102013.05
2017-12-04T21:41:23.252Z,102016.37
2017-12-04T21:43:49.054Z,102019.52
2017-12-04T21:46:15.035Z,102027.55
2017-12-04T21:48:40.941Z,102024.48
2017-12-04T21:51:06.796Z,102028.29
2017-12-04T21:53:32.603Z,102031.73
2017-12-04T21:55:58.391Z,102032.09
2017-12-04T21:58:24.313Z,102035.89
2017-12-04T22:00:50.215Z,102037.91
2017-12-04T22:03:16.176Z,102042.70
2017-12-04T22:05:41.979Z,102044.31
2017-12-04T22:08:07.767Z,102043.75
2017-12-04T22:10:33.617Z,102046.05
2017-12-04T22:12:59.423Z,102047.72
2017-12-04T22:15:25.354Z,102048.98
2017-12-04T22:17:51.149Z,102046.34
2017-12-04T22:20:16.957Z,102046.42
2017-12-04T22:22:42.768Z,102054.41
2017-12-04T22:25:08.563Z,102050.01
2017-12-04T22:27:34.453Z,102056.56
2017-12-04T22:30:00.271Z,102050.13
2017-12-04T22:32:26.112Z,102053.51
2017-12-04T22:34:51.903Z,102056.52
2017-12-04T22:37:17.697Z,102057.80
2017-12-04T22:39:44.601Z,102059.84
2017-12-04T22:42:10.395Z,102060.34
2017-12-04T22:44:36.192Z,102057.59
2017-12-04T22:47:01.988Z,102063.70
2017-12-04T22:49:27.839Z,102065.18
2017-12-04T22:51:53.625Z,102064.80
2017-12-04T22:54:19.444Z,102058.14
2017-12-04T22:56:45.235Z,102060.48
2017-12-04T22:59:11.083Z,102060.58
2017-12-04T23:01:37.096Z,102065.88
2017-12-04T23:04:02.888Z,102060.04
2017-12-04T23:06:28.689Z,102059.48
2017-12-04T23:08:54.480Z,102063.94
2017-12-04T23:11:21.252Z,102055.59
2017-12-04T23:13:47.059Z,102064.13
2017-12-04T23:16:12.914Z,102069.03
2017-12-04T23:18:38.788Z,102065.45
2017-12-04T23:21:04.598Z,102072.06
2017-12-04T23:23:30.423Z,102073.58
2017-12-04T23:25:56.213Z,102073.70
2017-12-04T23:28:22.056Z,102077.90
2017-12-04T23:30:47.852Z,102072.19
2017-12-04T23:33:13.659Z,102075.84
2017-12-04T23:35:39.444Z,102074.45
2017-12-04T23:38:05.527Z,102075.90
2017-12-04T23:40:31.345Z,102068.29
2017-12-04T23:42:57.131Z,102073.76
2017-12-04T23:45:22.944Z,102074.16
2017-12-04T23:47:48.780Z,102067.84
2017-12-04T23:50:14.624Z,102066.83
2017-12-04T23:52:40.535Z,102071.42
2017-12-04T23:55:06.338Z,102071.94
2017-12-04T23:57:32.115Z,102068.47
2017-12-04T23:59:57.928Z,102071.45
